Time;durP1;ratioP1;P1;durP2;ratioP2;P2;SDS_P1;SDS_P2;PMS_P1;PMS_P2;Temp;Humidity;BMP_temperature;BMP_pressure;BME280_temperature;BME280_humidity;BME280_pressure;Samples;Min_cycle;Max_cycle;Signal;HPM_P1;HPM_P2
2023/11/20 00:00:19;;;;;;;0.77;0.77;;;-2.50;99.90;;;;;;5069339;28;20615;-68
2023/11/20 00:02:44;;;;;;;0.70;0.70;;;-2.60;99.90;;;;;;5069453;28;20693;-68
2023/11/20 00:05:10;;;;;;;0.70;0.70;;;-2.50;99.90;;;;;;5069275;28;20193;-67
2023/11/20 00:07:36;;;;;;;0.75;0.75;;;-2.50;99.90;;;;;;5069168;28;20228;-67
2023/11/20 00:10:04;;;;;;;0.90;0.90;;;-2.50;99.90;;;;;;5069311;28;20201;-67
2023/11/20 00:12:31;;;;;;;0.70;0.70;;;-2.50;99.90;;;;;;5069263;28;20653;-66
2023/11/20 00:14:56;;;;;;;0.80;0.80;;;-2.50;99.90;;;;;;5069223;28;20280;-66
2023/11/20 00:17:22;;;;;;;0.60;0.60;;;-2.50;99.90;;;;;;5068668;28;20291;-67
2023/11/20 00:19:48;;;;;;;0.70;0.70;;;-2.50;99.90;;;;;;5067738;28;20246;-67
2023/11/20 00:22:13;;;;;;;0.95;0.95;;;-2.50;99.90;;;;;;5051563;28;20202;-67
2023/11/20 00:24:39;;;;;;;0.70;0.70;;;-2.50;99.90;;;;;;5049100;28;20259;-68
2023/11/20 00:27:05;;;;;;;0.60;0.60;;;-2.50;99.90;;;;;;5048003;28;20207;-69
2023/11/20 00:29:30;;;;;;;0.70;0.70;;;-2.50;99.90;;;;;;5048987;28;20294;-69
2023/11/20 00:31:56;;;;;;;0.68;0.68;;;-2.50;99.90;;;;;;5049758;28;20652;-68
2023/11/20 00:34:22;;;;;;;0.80;0.80;;;-2.50;99.90;;;;;;5048561;28;20201;-69
2023/11/20 00:36:48;;;;;;;0.60;0.60;;;-2.50;99.90;;;;;;5049000;28;20220;-69
2023/11/20 00:39:13;;;;;;;0.98;0.98;;;-2.50;99.90;;;;;;5048681;28;20278;-69
2023/11/20 00:41:39;;;;;;;0.80;0.80;;;-2.50;99.90;;;;;;5048916;28;20744;-68
2023/11/20 00:44:06;;;;;;;0.70;0.70;;;-2.50;99.90;;;;;;5048833;28;20720;-69
2023/11/20 00:46:35;;;;;;;0.63;0.63;;;-2.50;99.90;;;;;;5048647;28;20213;-69
2023/11/20 00:49:05;;;;;;;0.80;0.80;;;-2.40;99.90;;;;;;5065343;28;20204;-68
2023/11/20 00:51:31;;;;;;;0.70;0.70;;;-2.40;99.90;;;;;;5068375;28;20302;-68
2023/11/20 00:53:56;;;;;;;0.68;0.68;;;-2.40;99.90;;;;;;5068741;28;20303;-69
2023/11/20 00:56:22;;;;;;;0.68;0.68;;;-2.40;99.90;;;;;;5068555;28;20629;-69
2023/11/20 00:58:48;;;;;;;0.70;0.70;;;-2.40;99.90;;;;;;5068641;28;20200;-69
2023/11/20 01:01:13;;;;;;;0.70;0.70;;;-2.40;99.90;;;;;;5068848;28;20211;-69
2023/11/20 01:03:40;;;;;;;0.60;0.60;;;-2.40;99.90;;;;;;5068775;28;20192;-68
2023/11/20 01:06:08;;;;;;;0.80;0.80;;;-2.40;99.90;;;;;;5068770;28;20200;-68
2023/11/20 01:08:35;;;;;;;0.85;0.85;;;-2.30;99.90;;;;;;5068635;28;20196;-69
2023/11/20 01:11:00;;;;;;;0.70;0.70;;;-2.30;99.90;;;;;;5068957;28;20189;-69
2023/11/20 01:13:26;;;;;;;0.77;0.77;;;-2.30;99.90;;;;;;5067129;28;20197;-69
2023/11/20 01:15:52;;;;;;;0.65;0.65;;;-2.30;99.90;;;;;;5068490;28;20652;-69
2023/11/20 01:18:19;;;;;;;1.00;1.00;;;-2.30;99.90;;;;;;5052251;28;20201;-69
2023/11/20 01:20:45;;;;;;;0.70;0.70;;;-2.30;99.90;;;;;;5048449;28;20193;-69
2023/11/20 01:23:10;;;;;;;0.80;0.80;;;-2.20;99.90;;;;;;5048432;28;20564;-69
2023/11/20 01:25:36;;;;;;;0.60;0.60;;;-2.20;99.90;;;;;;5048242;28;20192;-69
2023/11/20 01:28:02;;;;;;;0.80;0.80;;;-2.20;99.90;;;;;;5048943;28;20300;-69
2023/11/20 01:30:27;;;;;;;0.60;0.60;;;-2.20;99.90;;;;;;5048192;28;20688;-69
2023/11/20 01:32:54;;;;;;;0.68;0.68;;;-2.20;99.90;;;;;;5048336;28;20201;-68
2023/11/20 01:35:20;;;;;;;0.80;0.80;;;-2.20;99.90;;;;;;5046840;28;20669;-69
2023/11/20 01:37:46;;;;;;;0.75;0.75;;;-2.20;99.90;;;;;;5048305;28;20209;-67
2023/11/20 01:40:15;;;;;;;0.70;0.70;;;-2.20;99.90;;;;;;5048458;28;20204;-66
2023/11/20 01:42:40;;;;;;;0.75;0.75;;;-2.20;99.90;;;;;;5048207;28;20749;-66
2023/11/20 01:45:09;;;;;;;1.00;1.00;;;-2.20;99.90;;;;;;5064385;28;20196;-68
2023/11/20 01:47:38;;;;;;;0.60;0.60;;;-2.20;99.90;;;;;;5072110;28;20692;-66
2023/11/20 01:50:07;;;;;;;0.77;0.77;;;-2.20;99.90;;;;;;5070558;28;20236;-67
2023/11/20 01:52:44;;;;;;;0.80;0.80;;;-2.20;99.90;;;;;;5071826;28;20664;-66
2023/11/20 01:55:12;;;;;;;0.80;0.80;;;-2.30;99.90;;;;;;5071833;28;20203;-68
2023/11/20 01:57:41;;;;;;;0.90;0.90;;;-2.30;99.90;;;;;;5071610;28;20212;-66
2023/11/20 02:00:10;;;;;;;1.58;1.20;;;-2.30;99.90;;;;;;5071763;28;20275;-68
2023/11/20 02:02:38;;;;;;;1.40;1.10;;;-2.30;99.90;;;;;;5071386;28;20251;-66
2023/11/20 02:05:05;;;;;;;0.80;0.80;;;-2.30;99.90;;;;;;5071533;28;20208;-67
2023/11/20 02:07:33;;;;;;;0.80;0.80;;;-2.30;99.90;;;;;;5071592;28;20200;-67
2023/11/20 02:10:04;;;;;;;0.70;0.70;;;-2.30;99.90;;;;;;5071529;28;20209;-68
2023/11/20 02:12:30;;;;;;;0.70;0.70;;;-2.30;99.90;;;;;;5071227;28;20335;-66
2023/11/20 02:14:56;;;;;;;0.68;0.68;;;-2.30;99.90;;;;;;5071014;28;20197;-67
2023/11/20 02:17:22;;;;;;;0.85;0.85;;;-2.30;99.90;;;;;;5070805;28;20216;-69
2023/11/20 02:19:48;;;;;;;0.70;0.70;;;-2.30;99.90;;;;;;5071813;28;20192;-67
2023/11/20 02:22:17;;;;;;;0.80;0.80;;;-2.30;99.90;;;;;;5070989;28;20193;-67
2023/11/20 02:24:44;;;;;;;0.70;0.70;;;-2.30;99.90;;;;;;5071355;28;20197;-66
2023/11/20 02:27:19;;;;;;;0.77;0.77;;;-2.30;99.90;;;;;;5071273;28;20238;-66
2023/11/20 02:29:54;;;;;;;0.80;0.80;;;-2.30;99.90;;;;;;5069835;28;20200;-68
2023/11/20 02:32:22;;;;;;;0.70;0.70;;;-2.30;99.90;;;;;;5071230;28;20208;-67
2023/11/20 02:34:50;;;;;;;0.63;0.63;;;-2.20;99.90;;;;;;5071640;28;20208;-68
2023/11/20 02:37:15;;;;;;;0.60;0.60;;;-2.20;99.90;;;;;;5071094;28;20211;-70
2023/11/20 02:39:41;;;;;;;0.80;0.80;;;-2.30;99.90;;;;;;5069469;28;20189;-66
2023/11/20 02:42:06;;;;;;;1.20;1.13;;;-2.20;99.90;;;;;;5049535;28;20202;-67
2023/11/20 02:44:36;;;;;;;0.93;0.93;;;-2.20;99.90;;;;;;5051031;28;20569;-68
2023/11/20 02:47:02;;;;;;;0.90;0.90;;;-2.20;99.90;;;;;;5052583;28;20193;-71
2023/11/20 02:49:28;;;;;;;0.70;0.70;;;-2.20;99.90;;;;;;5070849;28;20200;-70
2023/11/20 02:51:55;;;;;;;0.88;0.88;;;-2.20;99.90;;;;;;5069402;28;20246;-72
2023/11/20 02:54:20;;;;;;;0.70;0.70;;;-2.20;99.90;;;;;;5069347;28;20201;-72
2023/11/20 02:56:46;;;;;;;0.70;0.70;;;-2.20;99.90;;;;;;5070455;28;20212;-71
2023/11/20 02:59:12;;;;;;;0.70;0.70;;;-2.10;99.90;;;;;;5063040;28;20555;-71
2023/11/20 03:01:38;;;;;;;0.82;0.82;;;-2.10;99.90;;;;;;5050552;28;20296;-72
2023/11/20 03:04:04;;;;;;;0.70;0.70;;;-2.10;99.90;;;;;;5050742;28;20335;-72
2023/11/20 03:06:30;;;;;;;0.60;0.60;;;-2.10;99.90;;;;;;5062482;28;20568;-67
2023/11/20 03:08:56;;;;;;;0.63;0.63;;;-2.10;99.90;;;;;;5070484;28;20671;-67
2023/11/20 03:11:21;;;;;;;0.80;0.80;;;-2.10;99.90;;;;;;5070417;28;20192;-67
2023/11/20 03:13:47;;;;;;;0.65;0.65;;;-2.10;99.90;;;;;;5070602;28;20200;-67
2023/11/20 03:16:13;;;;;;;0.77;0.77;;;-2.10;99.90;;;;;;5070522;28;20201;-67
2023/11/20 03:18:39;;;;;;;0.63;0.63;;;-2.10;99.90;;;;;;5070342;28;20271;-67
2023/11/20 03:21:04;;;;;;;0.70;0.70;;;-2.10;99.90;;;;;;5070421;28;20223;-67
2023/11/20 03:23:30;;;;;;;0.68;0.68;;;-2.20;99.90;;;;;;5070219;28;20247;-66
2023/11/20 03:25:56;;;;;;;0.50;0.50;;;-2.10;99.90;;;;;;5070227;28;20189;-66
2023/11/20 03:28:21;;;;;;;0.80;0.80;;;-2.20;99.90;;;;;;5069851;28;20308;-67
2023/11/20 03:30:47;;;;;;;0.70;0.70;;;-2.20;99.90;;;;;;5069889;28;20193;-66
2023/11/20 03:33:13;;;;;;;0.70;0.70;;;-2.20;99.90;;;;;;5069953;28;20192;-68
2023/11/20 03:35:39;;;;;;;0.85;0.85;;;-2.20;99.90;;;;;;5069859;28;20200;-69
2023/11/20 03:38:05;;;;;;;1.60;1.20;;;-2.20;99.90;;;;;;5049136;28;20296;-66
2023/11/20 03:40:30;;;;;;;0.68;0.68;;;-2.20;99.90;;;;;;5050004;28;20332;-68
2023/11/20 03:42:56;;;;;;;0.90;0.90;;;-2.30;99.90;;;;;;5049989;28;20254;-67
2023/11/20 03:45:22;;;;;;;0.60;0.60;;;-2.30;99.90;;;;;;5068200;28;20200;-68
2023/11/20 03:47:47;;;;;;;0.70;0.70;;;-2.30;99.90;;;;;;5069965;28;20205;-68
2023/11/20 03:50:13;;;;;;;0.80;0.80;;;-2.30;99.90;;;;;;5069616;28;20232;-68
2023/11/20 03:52:39;;;;;;;0.70;0.70;;;-2.30;99.90;;;;;;5069438;28;21202;-68
2023/11/20 03:55:05;;;;;;;0.80;0.80;;;-2.30;99.90;;;;;;5069772;28;20201;-67
2023/11/20 03:57:30;;;;;;;0.70;0.70;;;-2.30;99.90;;;;;;5069449;28;20209;-68
2023/11/20 03:59:56;;;;;;;0.60;0.60;;;-2.40;99.90;;;;;;5068148;28;20201;-68
2023/11/20 04:02:22;;;;;;;0.70;0.70;;;-2.40;99.90;;;;;;5060062;28;20667;-68
2023/11/20 04:04:47;;;;;;;0.70;0.70;;;-2.40;99.90;;;;;;5069456;28;20415;-70
2023/11/20 04:07:14;;;;;;;0.90;0.90;;;-2.40;99.90;;;;;;5051397;28;20204;-70
2023/11/20 04:09:40;;;;;;;0.77;0.77;;;-2.40;99.90;;;;;;5049015;28;20197;-69
2023/11/20 04:12:06;;;;;;;0.77;0.77;;;-2.40;99.90;;;;;;5047890;28;20208;-69
2023/11/20 04:14:32;;;;;;;0.80;0.80;;;-2.40;99.90;;;;;;5049252;28;20223;-69
2023/11/20 04:16:58;;;;;;;0.80;0.80;;;-2.40;99.90;;;;;;5049010;28;20248;-70
2023/11/20 04:19:24;;;;;;;0.70;0.70;;;-2.40;99.90;;;;;;5049127;28;20189;-69
2023/11/20 04:21:50;;;;;;;0.70;0.70;;;-2.30;99.90;;;;;;5049070;28;20192;-69
2023/11/20 04:24:15;;;;;;;0.55;0.55;;;-2.30;99.90;;;;;;5047896;28;20208;-68
2023/11/20 04:26:41;;;;;;;0.68;0.68;;;-2.40;99.90;;;;;;5048937;28;20193;-69
2023/11/20 04:29:07;;;;;;;0.80;0.80;;;-2.30;99.90;;;;;;5049208;28;20288;-68
2023/11/20 04:31:33;;;;;;;1.00;0.93;;;-2.40;99.90;;;;;;5049324;28;20266;-69
2023/11/20 04:33:58;;;;;;;0.70;0.70;;;-2.40;99.90;;;;;;5048965;28;20221;-68
2023/11/20 04:36:24;;;;;;;0.63;0.63;;;-2.40;99.90;;;;;;5048770;28;20684;-70
2023/11/20 04:38:50;;;;;;;1.15;1.10;;;-2.40;99.90;;;;;;5048951;28;20459;-70
2023/11/20 04:41:15;;;;;;;0.77;0.77;;;-2.40;99.90;;;;;;5064500;28;20201;-69
2023/11/20 04:43:41;;;;;;;0.80;0.80;;;-2.40;99.90;;;;;;5068807;28;20278;-69
2023/11/20 04:46:09;;;;;;;0.60;0.60;;;-2.40;99.90;;;;;;5068822;28;20204;-69
2023/11/20 04:48:36;;;;;;;0.70;0.70;;;-2.40;99.90;;;;;;5067234;28;20196;-69
2023/11/20 04:51:02;;;;;;;0.70;0.70;;;-2.40;99.90;;;;;;5067111;28;20771;-69
2023/11/20 04:53:27;;;;;;;0.80;0.80;;;-2.40;99.90;;;;;;5068824;28;20284;-69
2023/11/20 04:55:53;;;;;;;0.70;0.70;;;-2.50;99.90;;;;;;5068779;28;20668;-68
2023/11/20 04:58:21;;;;;;;0.60;0.60;;;-2.50;99.90;;;;;;5068395;28;20212;-69
2023/11/20 05:00:51;;;;;;;0.70;0.70;;;-2.50;99.90;;;;;;5068675;28;20197;-68
2023/11/20 05:03:17;;;;;;;0.70;0.70;;;-2.50;99.90;;;;;;5068498;28;20206;-69
2023/11/20 05:05:43;;;;;;;0.80;0.80;;;-2.50;99.90;;;;;;5068484;28;20652;-67
2023/11/20 05:08:09;;;;;;;0.70;0.70;;;-2.60;99.90;;;;;;5068583;28;20192;-68
2023/11/20 05:10:35;;;;;;;0.80;0.80;;;-2.70;99.90;;;;;;5068359;28;20197;-67
2023/11/20 05:13:02;;;;;;;0.60;0.60;;;-2.80;99.90;;;;;;5068555;28;20200;-70
2023/11/20 05:15:27;;;;;;;0.85;0.85;;;-2.80;99.90;;;;;;5068482;28;20192;-68
2023/11/20 05:17:53;;;;;;;0.60;0.60;;;-2.90;99.90;;;;;;5068391;28;20212;-66
2023/11/20 05:20:19;;;;;;;0.80;0.80;;;-2.90;99.90;;;;;;5071196;28;20228;-69
2023/11/20 05:22:45;;;;;;;0.88;0.88;;;-2.90;99.90;;;;;;5072331;28;20189;-67
2023/11/20 05:25:11;;;;;;;0.70;0.70;;;-2.90;99.90;;;;;;5072418;28;20230;-68
2023/11/20 05:27:37;;;;;;;0.70;0.70;;;-2.90;99.90;;;;;;5072382;28;20197;-68
2023/11/20 05:30:05;;;;;;;0.80;0.80;;;-2.90;99.90;;;;;;5057942;28;20197;-69
2023/11/20 05:32:31;;;;;;;0.70;0.70;;;-2.90;99.90;;;;;;5050936;28;20614;-68
2023/11/20 05:34:56;;;;;;;1.13;1.08;;;-2.90;99.90;;;;;;5052468;28;20247;-68
2023/11/20 05:37:23;;;;;;;0.70;0.70;;;-2.90;99.90;;;;;;5066243;28;20201;-68
2023/11/20 05:39:48;;;;;;;0.70;0.70;;;-2.90;99.90;;;;;;5072225;28;20221;-67
2023/11/20 05:42:14;;;;;;;0.70;0.70;;;-2.80;99.90;;;;;;5072209;28;20236;-70
2023/11/20 05:44:40;;;;;;;0.80;0.80;;;-2.80;99.90;;;;;;5072031;28;20467;-68
2023/11/20 05:47:06;;;;;;;0.80;0.80;;;-2.90;99.90;;;;;;5071999;28;20197;-68
2023/11/20 05:49:31;;;;;;;0.80;0.80;;;-2.90;99.90;;;;;;5071963;28;20249;-68
2023/11/20 05:51:57;;;;;;;0.70;0.70;;;-2.90;99.90;;;;;;5071672;28;20232;-67
2023/11/20 05:54:23;;;;;;;0.70;0.70;;;-2.90;99.90;;;;;;5071868;28;20207;-67
2023/11/20 05:56:48;;;;;;;1.13;1.13;;;-2.90;99.90;;;;;;5071802;28;20208;-67
2023/11/20 05:59:14;;;;;;;0.95;0.95;;;-2.90;99.90;;;;;;5058204;28;20205;-68
2023/11/20 06:01:41;;;;;;;0.88;0.88;;;-2.90;99.90;;;;;;5051602;28;20197;-67
2023/11/20 06:04:08;;;;;;;0.88;0.88;;;-2.90;99.90;;;;;;5051660;28;20197;-68
2023/11/20 06:06:38;;;;;;;0.75;0.75;;;-2.90;99.90;;;;;;5064330;28;20204;-67
2023/11/20 06:09:05;;;;;;;0.70;0.70;;;-2.90;99.90;;;;;;5071704;28;20573;-68
2023/11/20 06:11:32;;;;;;;0.70;0.70;;;-2.80;99.90;;;;;;5070063;28;20208;-67
2023/11/20 06:13:58;;;;;;;0.93;0.93;;;-2.90;99.90;;;;;;5071446;28;20212;-67
2023/11/20 06:16:24;;;;;;;1.50;1.17;;;-2.80;99.90;;;;;;5071436;28;20213;-68
2023/11/20 06:18:50;;;;;;;1.15;1.08;;;-2.80;99.90;;;;;;5071316;28;20196;-68
2023/11/20 06:21:16;;;;;;;0.70;0.70;;;-2.90;99.90;;;;;;5071500;28;20668;-67
2023/11/20 06:23:41;;;;;;;0.90;0.90;;;-2.80;99.90;;;;;;5071421;28;20648;-67
2023/11/20 06:26:07;;;;;;;1.13;1.13;;;-2.80;99.90;;;;;;5057690;28;20202;-67
2023/11/20 06:28:33;;;;;;;0.70;0.70;;;-2.70;99.90;;;;;;5058598;28;20610;-68
2023/11/20 06:30:59;;;;;;;0.80;0.80;;;-2.70;99.90;;;;;;5070625;28;20514;-68
2023/11/20 06:33:24;;;;;;;0.93;0.93;;;-2.60;99.90;;;;;;5070926;28;20200;-67
2023/11/20 06:35:50;;;;;;;0.93;0.93;;;-2.60;99.90;;;;;;5071102;28;20610;-67
2023/11/20 06:38:16;;;;;;;0.70;0.70;;;-2.50;99.90;;;;;;5070943;28;20299;-67
2023/11/20 06:40:42;;;;;;;1.00;1.00;;;-2.50;99.90;;;;;;5070878;28;20296;-67
2023/11/20 06:43:08;;;;;;;1.38;1.27;;;-2.50;99.90;;;;;;5071139;28;20231;-68
2023/11/20 06:45:35;;;;;;;0.85;0.85;;;-2.50;99.90;;;;;;5071013;28;20546;-68
2023/11/20 06:48:01;;;;;;;0.70;0.70;;;-2.40;99.90;;;;;;5067550;28;20224;-68
2023/11/20 06:50:27;;;;;;;2.15;1.75;;;-2.40;99.90;;;;;;5062016;28;20699;-67
2023/11/20 06:52:54;;;;;;;0.65;0.65;;;-2.30;99.90;;;;;;5070515;28;20205;-68
2023/11/20 06:55:19;;;;;;;0.85;0.85;;;-2.30;99.90;;;;;;5070817;28;20700;-69
2023/11/20 06:57:46;;;;;;;0.80;0.80;;;-2.30;99.90;;;;;;5070441;28;20208;-70
2023/11/20 07:00:12;;;;;;;1.65;1.55;;;-2.30;99.90;;;;;;5070658;28;20185;-69
2023/11/20 07:02:39;;;;;;;1.23;1.23;;;-2.30;99.90;;;;;;5070677;28;20189;-69
2023/11/20 07:05:07;;;;;;;1.15;1.15;;;-2.30;99.90;;;;;;5070515;28;20196;-69
2023/11/20 07:07:40;;;;;;;1.15;1.15;;;-2.30;99.90;;;;;;5070514;28;20201;-69
2023/11/20 07:10:11;;;;;;;2.67;1.92;;;-2.20;99.90;;;;;;5070793;28;20726;-69
2023/11/20 07:12:38;;;;;;;0.70;0.70;;;-2.20;99.90;;;;;;5069495;28;20193;-69
2023/11/20 07:15:07;;;;;;;0.70;0.70;;;-2.20;99.90;;;;;;5070649;28;20215;-69
2023/11/20 07:17:33;;;;;;;0.63;0.63;;;-2.20;99.90;;;;;;5070373;28;20212;-69
2023/11/20 07:19:58;;;;;;;1.08;1.08;;;-2.20;99.90;;;;;;5070345;28;20220;-69
2023/11/20 07:22:27;;;;;;;0.60;0.60;;;-2.20;99.90;;;;;;5067303;28;20247;-69
2023/11/20 07:24:52;;;;;;;0.70;0.70;;;-2.10;99.90;;;;;;5070164;28;20242;-69
2023/11/20 07:27:18;;;;;;;0.70;0.70;;;-2.10;99.90;;;;;;5070740;28;20201;-67
2023/11/20 07:29:44;;;;;;;0.90;0.90;;;-2.10;99.90;;;;;;5069926;28;20196;-69
2023/11/20 07:32:10;;;;;;;1.85;1.75;;;-2.10;99.90;;;;;;5070113;28;20193;-67
2023/11/20 07:34:36;;;;;;;1.75;1.65;;;-2.00;99.90;;;;;;5069731;28;20726;-67
2023/11/20 07:37:02;;;;;;;1.10;1.10;;;-2.00;99.90;;;;;;5070291;28;20204;-67
2023/11/20 07:39:27;;;;;;;1.70;1.60;;;-2.00;99.90;;;;;;5069849;28;20696;-67
2023/11/20 07:41:53;;;;;;;0.75;0.75;;;-2.00;99.90;;;;;;5069941;28;20189;-67
2023/11/20 07:44:20;;;;;;;0.80;0.80;;;-2.00;99.90;;;;;;5069227;28;20184;-68
2023/11/20 07:46:47;;;;;;;0.70;0.70;;;-2.00;99.90;;;;;;5069864;28;20197;-68
2023/11/20 07:49:13;;;;;;;1.90;1.75;;;-1.90;99.90;;;;;;5069864;28;20215;-67
2023/11/20 07:51:39;;;;;;;0.80;0.80;;;-1.90;99.90;;;;;;5067939;28;20925;-67
2023/11/20 07:54:05;;;;;;;0.80;0.80;;;-1.90;99.90;;;;;;5069874;28;20209;-68
2023/11/20 07:56:30;;;;;;;1.13;1.10;;;-1.80;99.90;;;;;;5058056;28;20206;-67
2023/11/20 07:58:56;;;;;;;0.70;0.70;;;-1.80;99.90;;;;;;5048496;28;20574;-67
2023/11/20 08:01:23;;;;;;;0.75;0.75;;;-1.80;99.90;;;;;;5048481;28;20661;-67
2023/11/20 08:03:49;;;;;;;0.85;0.85;;;-1.70;99.90;;;;;;5048013;28;20576;-67
2023/11/20 08:06:15;;;;;;;2.30;2.10;;;-1.70;99.90;;;;;;5049688;28;20197;-67
2023/11/20 08:08:40;;;;;;;1.13;1.10;;;-1.70;99.90;;;;;;5049187;28;20193;-67
2023/11/20 08:11:06;;;;;;;0.98;0.98;;;-1.60;99.90;;;;;;5049542;28;20661;-67
2023/11/20 08:13:32;;;;;;;1.00;1.00;;;-1.60;99.90;;;;;;5049801;28;20546;-67
2023/11/20 08:15:58;;;;;;;0.68;0.68;;;-1.60;99.90;;;;;;5048226;28;20665;-68
2023/11/20 08:18:23;;;;;;;1.52;1.42;;;-1.60;99.90;;;;;;5047668;28;20300;-67
2023/11/20 08:20:49;;;;;;;0.70;0.70;;;-1.50;99.90;;;;;;5049345;28;20247;-69
2023/11/20 08:23:16;;;;;;;2.22;1.65;;;-1.60;99.90;;;;;;5049327;28;20194;-67
2023/11/20 08:25:42;;;;;;;0.60;0.60;;;-1.50;99.90;;;;;;5049181;28;20194;-67
2023/11/20 08:28:07;;;;;;;0.60;0.60;;;-1.50;99.90;;;;;;5049372;28;20189;-67
2023/11/20 08:30:34;;;;;;;0.80;0.80;;;-1.50;99.90;;;;;;5047622;28;20289;-67
2023/11/20 08:33:00;;;;;;;1.52;1.42;;;-1.50;99.90;;;;;;5049152;28;20205;-69
2023/11/20 08:35:25;;;;;;;0.93;0.93;;;-1.40;99.90;;;;;;5049105;28;20189;-69
2023/11/20 08:37:51;;;;;;;0.60;0.60;;;-1.40;99.90;;;;;;5065289;28;20741;-69
2023/11/20 08:40:17;;;;;;;2.25;1.17;;;-1.40;99.90;;;;;;5069057;28;20224;-67
2023/11/20 08:42:43;;;;;;;1.00;1.00;;;-1.30;99.90;;;;;;5068966;28;20200;-67
2023/11/20 08:45:10;;;;;;;0.70;0.70;;;-1.20;99.90;;;;;;5069156;28;20246;-67
2023/11/20 08:47:36;;;;;;;0.80;0.80;;;-1.20;99.90;;;;;;5068645;28;20192;-69
2023/11/20 08:50:06;;;;;;;0.80;0.80;;;-1.20;99.90;;;;;;5068583;28;20246;-68
2023/11/20 08:52:32;;;;;;;0.70;0.70;;;-1.10;99.90;;;;;;5068428;28;20266;-68
2023/11/20 08:54:58;;;;;;;0.70;0.70;;;-1.10;99.90;;;;;;5068438;28;20533;-67
2023/11/20 08:57:23;;;;;;;0.77;0.77;;;-1.10;99.90;;;;;;5068179;28;20544;-67
2023/11/20 08:59:49;;;;;;;1.00;1.00;;;-1.10;99.90;;;;;;5068731;28;20331;-67
2023/11/20 09:02:15;;;;;;;0.80;0.80;;;-1.10;99.90;;;;;;5068970;28;20284;-69
2023/11/20 09:04:41;;;;;;;0.80;0.80;;;-1.00;99.90;;;;;;5068691;28;20269;-68
2023/11/20 09:07:08;;;;;;;1.05;1.00;;;-1.10;99.90;;;;;;5068561;28;20280;-68
2023/11/20 09:09:35;;;;;;;0.60;0.60;;;-1.00;99.90;;;;;;5068566;28;20284;-68
2023/11/20 09:12:02;;;;;;;0.75;0.75;;;-1.10;99.90;;;;;;5068532;28;20204;-68
2023/11/20 09:14:28;;;;;;;1.05;1.05;;;-1.00;99.90;;;;;;5058335;28;20207;-67
2023/11/20 09:16:54;;;;;;;0.70;0.70;;;-1.00;99.90;;;;;;5048710;28;20664;-67
2023/11/20 09:19:21;;;;;;;0.60;0.60;;;-1.00;99.90;;;;;;5049718;28;20251;-67
2023/11/20 09:21:47;;;;;;;0.80;0.80;;;-0.90;99.90;;;;;;5048651;28;20259;-68
2023/11/20 09:24:12;;;;;;;0.73;0.73;;;-0.90;99.90;;;;;;5048951;28;20596;-68
2023/11/20 09:26:41;;;;;;;0.70;0.70;;;-0.90;99.90;;;;;;5048411;28;21582;-69
2023/11/20 09:29:10;;;;;;;0.70;0.70;;;-0.80;99.90;;;;;;5047024;28;20201;-68
2023/11/20 09:31:35;;;;;;;0.60;0.60;;;-0.80;99.90;;;;;;5048476;28;20201;-70
2023/11/20 09:34:02;;;;;;;0.70;0.70;;;-0.80;99.90;;;;;;5048297;28;20737;-69
2023/11/20 09:36:29;;;;;;;1.73;1.63;;;-0.70;99.90;;;;;;5048230;28;20213;-68
2023/11/20 09:38:54;;;;;;;0.52;0.52;;;-0.70;99.90;;;;;;5048273;28;20205;-68
2023/11/20 09:41:20;;;;;;;0.60;0.60;;;-0.60;99.90;;;;;;5048274;28;20189;-68
2023/11/20 09:43:48;;;;;;;0.55;0.55;;;-0.60;99.90;;;;;;5048369;28;20669;-68
2023/11/20 09:46:14;;;;;;;0.80;0.80;;;-0.60;99.90;;;;;;5048402;28;20661;-72
2023/11/20 09:48:43;;;;;;;0.60;0.60;;;-0.50;99.90;;;;;;5055797;28;20287;-71
2023/11/20 09:51:12;;;;;;;0.73;0.73;;;-0.50;99.90;;;;;;5073263;28;20307;-69
2023/11/20 09:53:46;;;;;;;1.85;1.58;;;-0.50;99.90;;;;;;5072040;28;20287;-68
2023/11/20 09:56:13;;;;;;;0.65;0.65;;;-0.50;99.90;;;;;;5066636;28;20207;-69
2023/11/20 09:59:03;;;;;;;0.60;0.60;;;-0.40;99.90;;;;;;5069045;28;20567;-71
2023/11/20 10:01:30;;;;;;;0.70;0.70;;;-0.40;99.90;;;;;;5068452;28;20232;-69
2023/11/20 10:04:02;;;;;;;4.15;1.20;;;-0.40;99.90;;;;;;5072191;28;20197;-69
2023/11/20 10:06:33;;;;;;;0.77;0.77;;;-0.40;99.90;;;;;;5069679;28;20201;-72
2023/11/20 10:09:40;;;;;;;0.75;0.75;;;-0.30;99.90;;;;;;5072286;28;20716;-69
2023/11/20 10:12:08;;;;;;;3.28;2.95;;;-0.40;99.90;;;;;;5014154;28;20206;-70
2023/11/20 10:14:33;;;;;;;4.10;2.85;;;-0.40;99.90;;;;;;5029225;28;20206;-69
2023/11/20 10:16:59;;;;;;;2.83;2.35;;;-0.40;99.90;;;;;;5029239;28;20273;-68
2023/11/20 10:19:25;;;;;;;1.58;1.48;;;-0.40;99.90;;;;;;5012465;28;20194;-68
2023/11/20 10:21:53;;;;;;;1.42;1.33;;;-0.30;99.90;;;;;;5029026;28;20606;-69
2023/11/20 10:24:19;;;;;;;0.70;0.70;;;-0.30;99.90;;;;;;5028808;28;20204;-69
2023/11/20 10:26:47;;;;;;;0.70;0.70;;;-0.20;99.90;;;;;;5029128;28;20733;-66
2023/11/20 10:29:14;;;;;;;1.67;1.58;;;-0.20;99.90;;;;;;5028836;28;20772;-66
2023/11/20 10:31:44;;;;;;;0.95;0.95;;;-0.10;99.90;;;;;;5028766;28;20202;-68
2023/11/20 10:34:45;;;;;;;0.73;0.73;;;0.00;99.90;;;;;;5030418;28;20198;-70
2023/11/20 10:37:20;;;;;;;2.58;1.23;;;0.10;99.90;;;;;;4994833;28;20222;-70
2023/11/20 10:39:46;;;;;;;0.70;0.70;;;0.10;99.90;;;;;;4992552;28;20286;-69
2023/11/20 10:42:15;;;;;;;0.85;0.82;;;0.20;99.90;;;;;;4998468;28;20293;-68
2023/11/20 10:44:42;;;;;;;0.70;0.70;;;0.20;99.90;;;;;;5021477;28;20273;-67
2023/11/20 10:47:08;;;;;;;0.60;0.60;;;0.20;99.90;;;;;;5008666;28;20198;-68
2023/11/20 10:49:36;;;;;;;0.63;0.63;;;0.20;99.90;;;;;;5008168;28;20206;-67
2023/11/20 10:52:09;;;;;;;0.82;0.82;;;0.30;99.90;;;;;;5008585;28;20720;-68
2023/11/20 10:54:49;;;;;;;2.03;1.63;;;0.30;99.90;;;;;;5008340;28;20479;-67
2023/11/20 10:57:18;;;;;;;0.70;0.70;;;0.20;99.90;;;;;;5008197;28;20222;-69
2023/11/20 10:59:45;;;;;;;0.60;0.60;;;0.20;99.90;;;;;;5008426;28;20203;-70
2023/11/20 11:02:22;;;;;;;1.30;1.20;;;0.20;99.90;;;;;;5008714;28;20594;-69
2023/11/20 11:04:56;;;;;;;0.70;0.70;;;0.20;99.90;;;;;;4992272;28;20361;-68
2023/11/20 11:07:24;;;;;;;0.63;0.63;;;0.20;99.90;;;;;;5008183;28;20254;-68
2023/11/20 11:09:51;;;;;;;0.60;0.60;;;0.10;99.90;;;;;;5008522;28;20628;-69
2023/11/20 11:12:21;;;;;;;1.40;1.30;;;0.10;99.90;;;;;;5068233;28;20632;-69
2023/11/20 11:14:47;;;;;;;0.80;0.80;;;0.20;99.90;;;;;;5070432;28;20204;-70
2023/11/20 11:17:21;;;;;;;3.15;1.45;;;0.20;99.90;;;;;;5070409;28;20208;-68
2023/11/20 11:19:59;;;;;;;0.65;0.65;;;0.20;99.90;;;;;;5070443;28;20192;-69
2023/11/20 11:22:33;;;;;;;0.70;0.70;;;0.30;99.90;;;;;;5070184;28;20668;-69
2023/11/20 11:25:02;;;;;;;0.52;0.52;;;0.30;99.90;;;;;;5070144;28;20280;-69
2023/11/20 11:27:37;;;;;;;0.80;0.80;;;0.20;99.90;;;;;;5070064;28;20610;-69
2023/11/20 11:30:07;;;;;;;0.90;0.90;;;0.20;99.90;;;;;;5068954;28;20211;-69
2023/11/20 11:32:43;;;;;;;0.68;0.68;;;0.20;99.90;;;;;;5069937;28;20288;-70
2023/11/20 11:35:31;;;;;;;0.60;0.60;;;0.20;99.90;;;;;;5070121;28;20675;-70
2023/11/20 11:38:03;;;;;;;1.35;1.25;;;0.20;99.90;;;;;;5070332;28;20698;-70
2023/11/20 11:40:53;;;;;;;0.60;0.60;;;0.20;99.90;;;;;;5069758;28;20711;-71
2023/11/20 11:43:27;;;;;;;0.70;0.70;;;0.30;99.90;;;;;;5070217;28;20556;-69
2023/11/20 11:45:55;;;;;;;0.80;0.80;;;0.30;99.90;;;;;;5070003;28;20655;-70
2023/11/20 11:48:23;;;;;;;0.88;0.88;;;0.30;99.90;;;;;;5069613;28;20613;-69
2023/11/20 11:50:49;;;;;;;0.75;0.75;;;0.30;99.90;;;;;;5068525;28;20722;-70
2023/11/20 11:53:15;;;;;;;0.60;0.60;;;0.30;99.90;;;;;;5069632;28;20213;-70
2023/11/20 11:55:42;;;;;;;0.63;0.63;;;0.40;99.90;;;;;;5069302;28;20283;-69
2023/11/20 11:58:14;;;;;;;0.70;0.70;;;0.40;99.90;;;;;;5069557;28;20257;-69
2023/11/20 12:00:40;;;;;;;0.70;0.70;;;0.40;99.90;;;;;;5069420;28;20193;-70
2023/11/20 12:03:08;;;;;;;0.70;0.70;;;0.40;99.90;;;;;;5069312;28;20334;-70
2023/11/20 12:05:54;;;;;;;0.70;0.70;;;0.40;99.90;;;;;;5069470;28;20189;-69
2023/11/20 12:08:24;;;;;;;0.73;0.73;;;0.40;99.90;;;;;;5069245;28;20247;-71
2023/11/20 12:10:52;;;;;;;0.70;0.70;;;0.40;99.90;;;;;;5069526;28;20716;-71
2023/11/20 12:13:23;;;;;;;0.70;0.70;;;0.40;99.90;;;;;;5069256;28;20215;-71
2023/11/20 12:15:52;;;;;;;0.65;0.65;;;0.40;99.90;;;;;;5069589;28;20188;-71
2023/11/20 12:18:24;;;;;;;0.60;0.60;;;0.50;99.90;;;;;;5069186;28;20291;-72
2023/11/20 12:20:50;;;;;;;0.70;0.70;;;0.50;99.90;;;;;;5069387;28;20216;-71
2023/11/20 12:23:33;;;;;;;0.70;0.70;;;0.50;99.90;;;;;;5069149;28;20251;-71
2023/11/20 12:26:01;;;;;;;1.35;1.00;;;0.40;99.90;;;;;;5068852;28;20200;-71
2023/11/20 12:28:31;;;;;;;0.57;0.57;;;0.40;99.90;;;;;;5068815;28;20200;-71
2023/11/20 12:30:58;;;;;;;0.73;0.73;;;0.40;99.90;;;;;;5069255;28;20201;-71
2023/11/20 12:33:24;;;;;;;0.57;0.57;;;0.40;99.90;;;;;;5068880;28;20785;-71
2023/11/20 12:35:54;;;;;;;0.50;0.50;;;0.50;99.90;;;;;;5069106;28;20725;-72
2023/11/20 12:38:20;;;;;;;0.70;0.70;;;0.40;99.90;;;;;;5068343;28;20216;-71
2023/11/20 12:40:51;;;;;;;0.80;0.80;;;0.40;99.90;;;;;;5069110;28;20197;-72
2023/11/20 12:43:19;;;;;;;0.63;0.63;;;0.50;99.90;;;;;;5068851;28;20295;-73
2023/11/20 12:45:44;;;;;;;1.10;1.00;;;0.50;99.90;;;;;;5068918;28;20571;-71
2023/11/20 12:48:11;;;;;;;0.70;0.70;;;0.50;99.90;;;;;;5068808;28;20196;-71